Time;durP1;ratioP1;P1;durP2;ratioP2;P2;SDS_P1;SDS_P2;PMS_P1;PMS_P2;Temp;Humidity;BMP_temperature;BMP_pressure;BME280_temperature;BME280_humidity;BME280_pressure;Samples;Min_cycle;Max_cycle;Signal;HPM_P1;HPM_P2
2021/10/17 00:01:17;;;;;;;;;;;;;;;27.20;59.24;100749.72;4999353;27;69087;-35
2021/10/17 00:03:47;;;;;;;;;;;;;;;27.22;59.65;100757.56;5004836;27;65752;-36
2021/10/17 00:06:28;;;;;;;;;;;;;;;27.28;59.78;100762.19;4998614;27;70272;-35
2021/10/17 00:08:58;;;;;;;;;;;;;;;27.31;60.23;100769.88;4989368;27;66573;-35
2021/10/17 00:11:29;;;;;;;;;;;;;;;27.33;60.37;100771.34;5088341;27;69924;-36
2021/10/17 00:13:59;;;;;;;;;;;;;;;27.30;61.12;100770.88;5014807;27;66316;-35
2021/10/17 00:16:30;;;;;;;;;;;;;;;27.32;64.39;100774.22;4989092;27;70536;-36
2021/10/17 00:19:03;;;;;;;;;;;;;;;27.36;65.88;100780.88;4987165;27;66101;-35
2021/10/17 00:21:34;;;;;;;;;;;;;;;27.39;66.78;100791.25;4988896;27;69739;-36
2021/10/17 00:24:04;;;;;;;;;;;;;;;27.41;67.67;100789.19;4984994;27;65719;-35
2021/10/17 00:26:35;;;;;;;;;;;;;;;27.46;68.11;100808.28;4999537;27;69702;-35
2021/10/17 00:29:06;;;;;;;;;;;;;;;27.47;68.16;100804.56;4988900;27;66893;-36
2021/10/17 00:31:36;;;;;;;;;;;;;;;27.50;68.84;100809.56;4988866;27;69454;-36
2021/10/17 00:34:07;;;;;;;;;;;;;;;27.55;69.35;100817.88;4992059;27;65753;-36
2021/10/17 00:36:37;;;;;;;;;;;;;;;27.56;69.18;100830.31;5001146;27;70278;-36
2021/10/17 00:39:07;;;;;;;;;;;;;;;27.54;69.09;100837.75;4991533;27;65460;-35
2021/10/17 00:41:38;;;;;;;;;;;;;;;27.59;69.48;100846.06;4990641;27;69241;-36
2021/10/17 00:44:08;;;;;;;;;;;;;;;27.47;69.60;100820.72;5075755;27;66955;-36
2021/10/17 00:46:38;;;;;;;;;;;;;;;27.62;69.42;100856.44;4990543;27;69378;-35
2021/10/17 00:49:15;;;;;;;;;;;;;;;27.64;69.33;100864.34;4993139;27;66513;-35
2021/10/17 00:51:45;;;;;;;;;;;;;;;27.66;69.69;100866.81;4994835;27;70357;-35
2021/10/17 00:54:16;;;;;;;;;;;;;;;27.67;69.74;100863.13;4993788;27;66561;-35
2021/10/17 00:56:46;;;;;;;;;;;;;;;27.67;69.79;100872.03;4995811;27;70180;-36
2021/10/17 00:59:17;;;;;;;;;;;;;;;27.70;70.11;100873.50;5095256;27;66882;-36
2021/10/17 01:01:47;;;;;;;;;;;;;;;27.72;70.40;100871.41;4991052;27;70387;-35
2021/10/17 01:04:18;;;;;;;;;;;;;;;27.73;69.98;100883.88;5001764;27;66524;-36
2021/10/17 01:06:48;;;;;;;;;;;;;;;27.74;70.11;100885.53;4991264;27;69072;-36
2021/10/17 01:09:18;;;;;;;;;;;;;;;27.75;70.34;100876.41;5009076;27;66345;-36
2021/10/17 01:11:49;;;;;;;;;;;;;;;27.72;70.35;100882.19;4991019;27;69503;-37
2021/10/17 01:14:26;;;;;;;;;;;;;;;27.78;70.74;100903.81;4990639;27;66375;-36
2021/10/17 01:16:56;;;;;;;;;;;;;;;27.80;70.53;100900.94;5095773;27;70021;-35
2021/10/17 01:19:27;;;;;;;;;;;;;;;27.79;70.54;100910.91;4992100;27;65542;-35
2021/10/17 01:22:06;;;;;;;;;;;;;;;27.79;70.78;100908.19;4993202;27;70521;-35
2021/10/17 01:24:36;;;;;;;;;;;;;;;27.82;70.67;100898.88;4994089;27;65992;-36
2021/10/17 01:27:08;;;;;;;;;;;;;;;27.80;70.93;100909.88;4992332;27;69706;-35
2021/10/17 01:29:38;;;;;;;;;;;;;;;27.83;70.79;100903.22;5080196;27;65267;-35
2021/10/17 01:32:09;;;;;;;;;;;;;;;27.83;70.94;100900.53;4992052;27;69103;-36
2021/10/17 01:34:39;;;;;;;;;;;;;;;27.83;71.07;100901.41;4991023;27;65585;-35
2021/10/17 01:37:10;;;;;;;;;;;;;;;27.83;71.10;100900.53;4989858;27;69849;-36
2021/10/17 01:39:40;;;;;;;;;;;;;;;27.83;71.16;100900.53;4990960;27;66556;-35
2021/10/17 01:42:10;;;;;;;;;;;;;;;27.82;71.47;100902.41;5090268;27;69332;-35
2021/10/17 01:44:47;;;;;;;;;;;;;;;27.86;71.20;100894.78;4983583;27;66678;-35
2021/10/17 01:47:18;;;;;;;;;;;;;;;27.85;71.21;100899.31;4991133;27;69570;-36
2021/10/17 01:49:48;;;;;;;;;;;;;;;27.87;71.54;100901.81;4998838;27;66931;-35
2021/10/17 01:52:19;;;;;;;;;;;;;;;27.89;71.67;100904.28;4986844;27;70138;-35
2021/10/17 01:54:51;;;;;;;;;;;;;;;27.88;72.21;100898.06;5004432;27;65904;-35
2021/10/17 01:57:23;;;;;;;;;;;;;;;27.92;72.56;100910.16;4987876;27;70412;-34
2021/10/17 01:59:54;;;;;;;;;;;;;;;27.94;72.58;100902.66;5070201;27;66361;-36
2021/10/17 02:02:46;;;;;;;;;;;;;;;27.96;72.96;100906.00;4986054;27;69907;-35
2021/10/17 02:05:24;;;;;;;;;;;;;;;27.97;73.30;100910.38;4986245;27;65958;-34
2021/10/17 02:07:59;;;;;;;;;;;;;;;27.99;73.63;100916.38;4992707;27;70363;-35
2021/10/17 02:10:29;;;;;;;;;;;;;;;28.01;73.46;100922.41;4989784;27;65732;-34
2021/10/17 02:13:08;;;;;;;;;;;;;;;28.01;73.30;100924.28;4984359;27;70051;-34
2021/10/17 02:15:40;;;;;;;;;;;;;;;28.02;73.42;100915.97;5065197;27;66493;-34
2021/10/17 02:18:12;;;;;;;;;;;;;;;28.03;73.47;100917.66;4972402;27;70586;-42
2021/10/17 02:20:47;;;;;;;;;;;;;;;28.04;73.18;100924.72;5051094;27;66015;-34
2021/10/17 02:23:18;;;;;;;;;;;;;;;28.07;73.19;100918.91;4980594;27;69329;-35
2021/10/17 02:25:53;;;;;;;;;;;;;;;28.09;73.23;100928.69;4982436;27;66852;-34
2021/10/17 02:28:41;;;;;;;;;;;;;;;28.09;72.87;100920.59;4980966;27;69557;-34
2021/10/17 02:31:12;;;;;;;;;;;;;;;28.10;72.71;100919.56;4984005;27;67195;-34
2021/10/17 02:33:49;;;;;;;;;;;;;;;28.11;72.34;100918.50;4983646;27;70504;-35
2021/10/17 02:36:20;;;;;;;;;;;;;;;28.12;72.52;100909.41;5082637;27;67388;-34
2021/10/17 02:38:53;;;;;;;;;;;;;;;28.10;71.91;100895.28;5084848;27;70291;-33
2021/10/17 02:41:23;;;;;;;;;;;;;;;28.11;71.76;100883.44;4983171;27;66284;-34
2021/10/17 02:43:54;;;;;;;;;;;;;;;28.09;71.59;100888.25;4968013;28;70516;-34
2021/10/17 02:46:24;;;;;;;;;;;;;;;28.12;70.97;100882.44;4979535;27;65751;-35
2021/10/17 02:48:55;;;;;;;;;;;;;;;28.09;70.10;100893.63;4966967;28;69757;-35
2021/10/17 02:51:25;;;;;;;;;;;;;;;28.02;69.47;100897.09;5083253;27;65975;-35
2021/10/17 02:53:56;;;;;;;;;;;;;;;28.00;70.05;100901.88;4982872;27;70318;-36
2021/10/17 02:56:27;;;;;;;;;;;;;;;27.97;69.46;100902.28;4998088;27;67182;-36
2021/10/17 02:58:58;;;;;;;;;;;;;;;27.95;69.86;100915.13;5000476;27;70472;-35
2021/10/17 03:01:28;;;;;;;;;;;;;;;27.91;69.05;100908.47;5000034;27;65618;-35
2021/10/17 03:04:01;;;;;;;;;;;;;;;27.88;69.04;100903.47;4997376;27;69424;-36
2021/10/17 03:06:32;;;;;;;;;;;;;;;27.86;69.29;100905.56;4984448;27;66482;-36
2021/10/17 03:09:03;;;;;;;;;;;;;;;27.87;68.93;100914.47;4996380;27;69705;-36
2021/10/17 03:11:35;;;;;;;;;;;;;;;27.85;68.73;100911.97;5077615;27;66849;-35
2021/10/17 03:14:06;;;;;;;;;;;;;;;27.87;68.88;100912.59;4999279;27;69279;-36
2021/10/17 03:16:36;;;;;;;;;;;;;;;27.93;69.58;100930.66;4988097;27;67987;-34
2021/10/17 03:19:07;;;;;;;;;;;;;;;28.00;69.69;100928.00;4999354;27;70901;-36
2021/10/17 03:21:39;;;;;;;;;;;;;;;28.05;69.94;100933.63;4991342;27;65587;-34
2021/10/17 03:24:10;;;;;;;;;;;;;;;28.09;69.86;100934.09;5083167;27;69452;-34
2021/10/17 03:26:42;;;;;;;;;;;;;;;28.13;69.93;100929.94;5085273;27;66318;-35
2021/10/17 03:29:14;;;;;;;;;;;;;;;28.15;69.86;100931.41;4961705;28;69953;-34
2021/10/17 03:31:44;;;;;;;;;;;;;;;28.18;69.90;100936.41;5001851;27;66370;-34
2021/10/17 03:34:15;;;;;;;;;;;;;;;28.22;70.05;100926.03;5072677;27;70002;-34
2021/10/17 03:36:46;;;;;;;;;;;;;;;28.23;69.56;100933.09;5082858;27;66568;-34
2021/10/17 03:39:17;;;;;;;;;;;;;;;28.27;69.49;100937.06;4988860;27;71120;-34
2021/10/17 03:41:48;;;;;;;;;;;;;;;28.30;69.61;100939.34;5056896;27;66275;-34
2021/10/17 03:44:18;;;;;;;;;;;;;;;28.29;69.92;100926.91;4973125;27;69910;-35
2021/10/17 03:46:53;;;;;;;;;;;;;;;28.32;70.17;100921.09;5066117;27;66886;-34
2021/10/17 03:49:27;;;;;;;;;;;;;;;28.33;69.98;100909.25;4988185;27;70822;-34
2021/10/17 03:51:59;;;;;;;;;;;;;;;28.35;70.29;100904.50;4982883;27;66539;-35
2021/10/17 03:54:32;;;;;;;;;;;;;;;28.35;70.29;100907.19;5066667;27;70025;-35
2021/10/17 03:57:03;;;;;;;;;;;;;;;28.37;69.92;100902.44;5070058;27;66231;-35
2021/10/17 03:59:34;;;;;;;;;;;;;;;28.40;70.34;100902.03;5081722;27;70473;-35
2021/10/17 04:02:04;;;;;;;;;;;;;;;28.43;70.45;100895.44;4985146;27;66349;-36
2021/10/17 04:04:35;;;;;;;;;;;;;;;28.46;70.43;100887.75;4986319;27;68779;-34
2021/10/17 04:07:06;;;;;;;;;;;;;;;28.49;69.76;100900.00;4988807;27;66420;-34
2021/10/17 04:09:39;;;;;;;;;;;;;;;28.56;70.09;100900.03;4991310;27;70482;-35
2021/10/17 04:12:10;;;;;;;;;;;;;;;28.53;70.18;100895.88;4980459;28;66423;-35
2021/10/17 04:14:50;;;;;;;;;;;;;;;28.52;69.88;100891.50;4982371;27;69346;-39
2021/10/17 04:17:21;;;;;;;;;;;;;;;28.52;70.40;100886.94;5088159;27;66362;-34
2021/10/17 04:19:51;;;;;;;;;;;;;;;28.52;70.28;100878.84;4987132;27;70282;-34
2021/10/17 04:22:23;;;;;;;;;;;;;;;28.56;70.09;100878.47;4986576;27;66325;-34
2021/10/17 04:24:54;;;;;;;;;;;;;;;28.58;70.51;100893.38;4986471;27;70097;-34
2021/10/17 04:27:24;;;;;;;;;;;;;;;28.62;70.35;100867.66;5081052;27;66241;-34
2021/10/17 04:29:56;;;;;;;;;;;;;;;28.66;69.99;100868.91;5082850;27;70415;-34
2021/10/17 04:32:28;;;;;;;;;;;;;;;28.68;70.06;100866.00;4983857;27;66382;-34
2021/10/17 04:34:59;;;;;;;;;;;;;;;28.70;70.37;100866.63;4988283;27;69477;-35
2021/10/17 04:37:30;;;;;;;;;;;;;;;28.73;69.90;100863.53;4990724;27;67112;-34
2021/10/17 04:40:01;;;;;;;;;;;;;;;28.75;70.06;100856.03;4982923;27;70457;-34
2021/10/17 04:42:31;;;;;;;;;;;;;;;28.78;70.28;100852.09;5081012;27;66636;-34
2021/10/17 04:45:05;;;;;;;;;;;;;;;28.80;70.23;100852.72;4970727;27;70744;-34
2021/10/17 04:47:36;;;;;;;;;;;;;;;28.81;69.92;100860.63;4999667;27;65800;-35
2021/10/17 04:50:06;;;;;;;;;;;;;;;28.83;69.87;100850.44;4982668;27;69073;-34
2021/10/17 04:52:37;;;;;;;;;;;;;;;28.84;69.94;100849.41;4970405;27;65376;-35
2021/10/17 04:55:08;;;;;;;;;;;;;;;28.89;70.11;100851.47;4979648;27;69714;-35
2021/10/17 04:57:41;;;;;;;;;;;;;;;28.88;70.20;100839.84;5000699;27;66540;-35
2021/10/17 05:00:13;;;;;;;;;;;;;;;28.91;70.26;100841.28;4985491;27;69363;-34
2021/10/17 05:03:13;;;;;;;;;;;;;;;28.94;70.36;100832.78;4994571;27;66054;-35
2021/10/17 05:05:43;;;;;;;;;;;;;;;28.94;70.17;100830.91;4988821;27;70024;-34
2021/10/17 05:08:15;;;;;;;;;;;;;;;28.95;70.33;100821.78;5084607;27;66409;-35
2021/10/17 05:10:46;;;;;;;;;;;;;;;28.99;70.27;100818.66;4964077;27;69125;-35
2021/10/17 05:13:17;;;;;;;;;;;;;;;28.99;70.26;100824.88;4984094;27;66769;-36
2021/10/17 05:15:48;;;;;;;;;;;;;;;29.02;69.90;100823.63;5085994;27;70551;-35
2021/10/17 05:18:18;;;;;;;;;;;;;;;29.02;70.28;100807.44;4990307;27;66536;-35
2021/10/17 05:20:55;;;;;;;;;;;;;;;29.05;70.19;100812.44;4980779;27;69557;-34
2021/10/17 05:23:25;;;;;;;;;;;;;;;29.08;70.32;100812.03;5006404;27;66739;-35
2021/10/17 05:25:56;;;;;;;;;;;;;;;29.07;69.86;100804.97;4985581;27;70079;-35
2021/10/17 05:28:26;;;;;;;;;;;;;;;29.09;70.35;100798.31;4970226;27;65454;-35
2021/10/17 05:31:03;;;;;;;;;;;;;;;29.13;70.00;100798.72;4998131;27;70568;-35
2021/10/17 05:33:37;;;;;;;;;;;;;;;29.15;70.13;100791.25;4987190;27;66814;-36
2021/10/17 05:36:09;;;;;;;;;;;;;;;29.17;70.56;100789.19;4986765;27;70085;-35
2021/10/17 05:38:43;;;;;;;;;;;;;;;29.20;70.34;100774.38;4984319;27;66158;-35
2021/10/17 05:41:22;;;;;;;;;;;;;;;29.22;70.14;100775.84;5051424;27;69004;-34
2021/10/17 05:43:55;;;;;;;;;;;;;;;29.23;70.13;100772.13;5071197;27;66827;-35
2021/10/17 05:46:25;;;;;;;;;;;;;;;29.27;69.88;100772.50;4993698;27;69779;-34
2021/10/17 05:48:56;;;;;;;;;;;;;;;29.27;70.40;100761.72;4986825;27;65361;-34
2021/10/17 05:51:27;;;;;;;;;;;;;;;29.30;70.20;100751.28;4999104;27;68546;-35
2021/10/17 05:53:59;;;;;;;;;;;;;;;29.31;69.32;100744.88;4971842;28;66512;-34
2021/10/17 05:56:32;;;;;;;;;;;;;;;29.20;67.76;100745.53;4971541;28;69140;-34
2021/10/17 05:59:08;;;;;;;;;;;;;;;29.07;65.52;100750.97;4987007;27;67497;-34
2021/10/17 06:01:42;;;;;;;;;;;;;;;28.81;64.69;100731.03;4961245;27;69842;-34
2021/10/17 06:04:18;;;;;;;;;;;;;;;28.86;64.51;100746.59;4975419;28;66645;-34
2021/10/17 06:06:57;;;;;;;;;;;;;;;28.76;63.49;100733.53;4988258;27;70344;-34
2021/10/17 06:09:32;;;;;;;;;;;;;;;28.72;62.57;100741.22;4986777;27;67027;-34
2021/10/17 06:12:05;;;;;;;;;;;;;;;28.65;61.69;100742.25;5088480;27;69593;-34
2021/10/17 06:14:37;;;;;;;;;;;;;;;28.62;60.48;100726.50;4986674;27;66553;-34
2021/10/17 06:17:07;;;;;;;;;;;;;;;28.56;59.37;100727.31;4982528;27;69827;-34
2021/10/17 06:19:38;;;;;;;;;;;;;;;28.49;59.15;100728.13;4990787;27;65611;-34
2021/10/17 06:22:08;;;;;;;;;;;;;;;28.42;57.94;100723.78;4988958;27;70319;-33
2021/10/17 06:24:42;;;;;;;;;;;;;;;28.38;57.70;100719.81;5009096;27;66556;-33
2021/10/17 06:27:13;;;;;;;;;;;;;;;28.37;56.95;100718.16;4992696;27;69899;-34
2021/10/17 06:29:45;;;;;;;;;;;;;;;28.31;55.96;100709.03;4992186;27;66809;-33
2021/10/17 06:32:15;;;;;;;;;;;;;;;28.25;55.65;100699.91;4994582;27;69897;-34
2021/10/17 06:34:46;;;;;;;;;;;;;;;28.22;55.08;100700.31;4994938;27;67084;-34
2021/10/17 06:37:18;;;;;;;;;;;;;;;28.19;54.59;100686.38;4995318;27;70219;-34
2021/10/17 06:39:48;;;;;;;;;;;;;;;28.17;54.35;100685.78;5003059;27;66625;-34
2021/10/17 06:42:22;;;;;;;;;;;;;;;28.13;53.84;100684.53;4995719;27;70081;-34
2021/10/17 06:45:19;;;;;;;;;;;;;;;28.16;53.63;100676.03;5000872;27;66656;-34
2021/10/17 06:47:49;;;;;;;;;;;;;;;28.11;52.96;100673.09;4996181;27;69286;-34
2021/10/17 06:50:23;;;;;;;;;;;;;;;28.12;53.06;100672.09;4994432;27;65787;-35
2021/10/17 06:52:54;;;;;;;;;;;;;;;28.10;52.70;100657.97;4993792;27;70121;-35
2021/10/17 06:55:25;;;;;;;;;;;;;;;28.13;52.57;100662.94;4984772;27;66034;-34
2021/10/17 06:57:57;;;;;;;;;;;;;;;28.11;52.38;100654.22;4991070;27;69267;-34
2021/10/17 07:00:29;;;;;;;;;;;;;;;28.11;52.07;100643.44;4992870;27;66269;-34
2021/10/17 07:03:01;;;;;;;;;;;;;;;28.13;52.10;100638.69;5005112;27;69462;-34
2021/10/17 07:05:34;;;;;;;;;;;;;;;28.13;52.08;100636.00;5093205;27;66074;-35
2021/10/17 07:08:05;;;;;;;;;;;;;;;28.12;51.51;100634.34;5089102;27;69017;-35
2021/10/17 07:10:36;;;;;;;;;;;;;;;28.11;51.59;100630.81;4995080;27;66530;-34
2021/10/17 07:13:25;;;;;;;;;;;;;;;28.12;51.04;100618.16;4992585;27;70077;-41
2021/10/17 07:15:58;;;;;;;;;;;;;;;28.13;51.32;100617.09;5092783;27;65191;-34
2021/10/17 07:18:29;;;;;;;;;;;;;;;28.14;50.67;100616.06;4989658;27;70103;-35
2021/10/17 07:21:01;;;;;;;;;;;;;;;28.15;50.90;100609.66;5094242;27;66264;-35
2021/10/17 07:23:31;;;;;;;;;;;;;;;28.15;50.04;100601.56;4992912;27;69833;-34
2021/10/17 07:26:04;;;;;;;;;;;;;;;28.13;50.67;100599.06;4989916;27;65748;-35
2021/10/17 07:28:35;;;;;;;;;;;;;;;28.14;50.30;100594.50;5007625;27;69360;-33
2021/10/17 07:31:09;;;;;;;;;;;;;;;28.12;49.80;100591.19;5007995;27;66190;-33
2021/10/17 07:34:05;;;;;;;;;;;;;;;28.11;49.92;100584.97;4997602;27;69274;-33
2021/10/17 07:36:37;;;;;;;;;;;;;;;28.11;49.98;100578.72;4983825;27;65568;-33
2021/10/17 07:39:19;;;;;;;;;;;;;;;28.09;49.61;100578.13;4994698;27;70634;-33
2021/10/17 07:41:52;;;;;;;;;;;;;;;28.10;49.43;100567.13;4995939;27;65334;-34
2021/10/17 07:44:23;;;;;;;;;;;;;;;27.97;49.26;100562.59;4994148;27;70622;-34
2021/10/17 07:47:00;;;;;;;;;;;;;;;28.10;48.98;100582.47;4988803;27;66594;-33
2021/10/17 07:49:35;;;;;;;;;;;;;;;28.09;49.11;100575.44;5000048;27;70796;-33
2021/10/17 07:52:06;;;;;;;;;;;;;;;28.12;48.60;100564.22;4992934;27;67369;-33
2021/10/17 07:54:37;;;;;;;;;;;;;;;28.14;49.15;100570.22;4995890;27;69893;-33
2021/10/17 07:57:11;;;;;;;;;;;;;;;28.14;49.00;100562.13;5087903;27;65960;-33
2021/10/17 07:59:42;;;;;;;;;;;;;;;28.25;51.00;100564.19;4989366;27;70307;-33
2021/10/17 08:02:16;;;;;;;;;;;;;;;28.47;55.72;100567.50;5072991;27;65432;-34
2021/10/17 08:04:51;;;;;;;;;;;;;;;28.66;56.07;100565.78;4982849;27;70140;-34
2021/10/17 08:07:25;;;;;;;;;;;;;;;28.80;56.43;100567.38;4986125;27;65150;-33
2021/10/17 08:09:56;;;;;;;;;;;;;;;28.92;56.59;100575.66;4983654;27;69322;-33
2021/10/17 08:12:27;;;;;;;;;;;;;;;29.04;57.08;100578.53;4956169;28;66909;-34
2021/10/17 08:14:58;;;;;;;;;;;;;;;29.14;57.96;100579.75;4981584;27;69184;-33
2021/10/17 08:17:31;;;;;;;;;;;;;;;29.26;58.73;100576.34;5086181;27;67102;-34
2021/10/17 08:20:09;;;;;;;;;;;;;;;29.34;59.05;100584.22;5003386;27;70109;-34
2021/10/17 08:22:42;;;;;;;;;;;;;;;29.39;59.56;100581.66;5086996;27;65299;-33
2021/10/17 08:25:13;;;;;;;;;;;;;;;29.46;60.46;100581.63;4981619;27;69955;-33
2021/10/17 08:27:49;;;;;;;;;;;;;;;29.53;62.18;100582.41;4989730;27;66618;-33
2021/10/17 08:30:31;;;;;;;;;;;;;;;29.59;63.36;100581.56;4983970;27;69332;-33
2021/10/17 08:33:04;;;;;;;;;;;;;;;29.64;63.92;100578.19;4971739;28;66457;-34
2021/10/17 08:35:35;;;;;;;;;;;;;;;29.68;64.81;100577.56;4992810;27;70034;-34
2021/10/17 08:38:08;;;;;;;;;;;;;;;29.72;64.91;100581.47;5087473;27;66178;-33
2021/10/17 08:40:50;;;;;;;;;;;;;;;29.77;65.54;100570.00;5087658;27;70328;-33
2021/10/17 08:43:39;;;;;;;;;;;;;;;29.82;65.72;100576.41;4983411;27;65505;-34
2021/10/17 08:46:20;;;;;;;;;;;;;;;29.92;65.50;100575.06;5003838;27;70205;-33
2021/10/17 08:49:02;;;;;;;;;;;;;;;30.08;64.72;100574.50;4982807;27;66487;-33
2021/10/17 08:51:37;;;;;;;;;;;;;;;30.22;64.14;100581.47;4993635;27;70032;-35
2021/10/17 08:54:12;;;;;;;;;;;;;;;30.33;63.96;100576.38;4985653;27;66219;-34
2021/10/17 08:56:50;;;;;;;;;;;;;;;30.41;63.87;100570.69;5088825;27;69584;-35
2021/10/17 08:59:29;;;;;;;;;;;;;;;30.46;63.99;100568.13;5000457;27;66037;-35
2021/10/17 09:02:11;;;;;;;;;;;;;;;30.55;64.12;100574.91;4983100;27;70116;-34
2021/10/17 09:04:42;;;;;;;;;;;;;;;30.63;64.82;100582.72;4987907;27;66210;-34
2021/10/17 09:07:20;;;;;;;;;;;;;;;30.67;65.76;100575.81;4984980;28;69864;-35
2021/10/17 09:10:22;;;;;;;;;;;;;;;30.76;65.12;100572.78;4995403;27;66658;-34
2021/10/17 09:13:14;;;;;;;;;;;;;;;30.80;65.40;100568.59;4990171;27;68641;-35
2021/10/17 09:15:45;;;;;;;;;;;;;;;30.85;65.88;100574.16;5088282;27;66689;-35
2021/10/17 09:18:18;;;;;;;;;;;;;;;30.86;65.54;100573.09;4991239;27;70803;-35
2021/10/17 09:20:56;;;;;;;;;;;;;;;30.86;66.07;100581.22;4986492;27;66072;-34
2021/10/17 09:23:26;;;;;;;;;;;;;;;30.82;65.48;100580.03;4992508;27;69296;-35
2021/10/17 09:25:59;;;;;;;;;;;;;;;30.86;67.03;100575.81;4989878;27;66275;-35
2021/10/17 09:28:35;;;;;;;;;;;;;;;30.86;66.69;100581.22;4991116;27;69234;-35
2021/10/17 09:31:06;;;;;;;;;;;;;;;30.92;65.98;100575.75;4988931;27;65755;-36
2021/10/17 09:33:43;;;;;;;;;;;;;;;30.80;66.71;100584.84;4987009;27;69336;-35
2021/10/17 09:36:21;;;;;;;;;;;;;;;30.66;67.94;100587.69;4988243;27;65585;-36
2021/10/17 09:39:16;;;;;;;;;;;;;;;30.60;68.47;100596.72;4981251;27;70280;-43
2021/10/17 09:42:20;;;;;;;;;;;;;;;30.62;68.45;100607.28;4984322;27;66111;-36
2021/10/17 09:45:18;;;;;;;;;;;;;;;30.63;68.83;100609.78;5081672;27;70297;-36
2021/10/17 09:47:49;;;;;;;;;;;;;;;30.63;69.06;100608.97;4995835;27;66548;-35
2021/10/17 09:50:20;;;;;;;;;;;;;;;30.61;69.45;100606.47;4992542;27;69996;-35
2021/10/17 09:52:53;;;;;;;;;;;;;;;30.64;68.69;100614.16;4988900;27;66566;-36
2021/10/17 09:55:24;;;;;;;;;;;;;;;30.62;69.83;100624.41;4989106;27;70225;-35
2021/10/17 09:57:55;;;;;;;;;;;;;;;30.60;69.72;100621.06;4993502;27;66939;-35
2021/10/17 10:00:26;;;;;;;;;;;;;;;30.67;69.69;100623.69;4986338;27;69299;-35
2021/10/17 10:02:58;;;;;;;;;;;;;;;30.63;69.55;100625.22;5012657;27;67492;-35
2021/10/17 10:05:29;;;;;;;;;;;;;;;30.58;70.21;100631.28;4995446;27;69726;-36
2021/10/17 10:08:03;;;;;;;;;;;;;;;30.53;71.15;100641.97;4994926;27;66721;-35
2021/10/17 10:10:34;;;;;;;;;;;;;;;30.53;71.43;100643.84;4993812;27;69455;-34
2021/10/17 10:13:25;;;;;;;;;;;;;;;30.49;71.36;100643.47;4989552;27;66946;-35
2021/10/17 10:15:56;;;;;;;;;;;;;;;30.59;71.16;100642.94;4988703;27;69171;-35
2021/10/17 10:18:31;;;;;;;;;;;;;;;30.68;70.69;100639.72;4990514;27;66782;-35
2021/10/17 10:21:02;;;;;;;;;;;;;;;30.72;70.13;100640.91;4995412;27;69150;-35
2021/10/17 10:23:33;;;;;;;;;;;;;;;30.82;69.92;100642.34;4992347;27;66771;-35
2021/10/17 10:26:04;;;;;;;;;;;;;;;30.84;70.59;100643.75;4994315;27;70278;-35
2021/10/17 10:28:37;;;;;;;;;;;;;;;30.88;70.06;100638.72;5019003;27;66544;-35
2021/10/17 10:31:08;;;;;;;;;;;;;;;30.91;69.45;100649.09;4989689;27;69851;-34
2021/10/17 10:33:42;;;;;;;;;;;;;;;30.94;70.16;100649.47;5002566;27;65317;-35
2021/10/17 10:36:13;;;;;;;;;;;;;;;30.91;70.65;100649.09;5003140;27;69372;-35
2021/10/17 10:38:53;;;;;;;;;;;;;;;30.90;70.44;100659.09;5001908;27;66420;-34
2021/10/17 10:41:26;;;;;;;;;;;;;;;30.92;70.43;100653.44;4997199;27;70383;-35
2021/10/17 10:44:12;;;;;;;;;;;;;;;30.96;70.35;100657.38;4987319;27;66444;-35
2021/10/17 10:46:49;;;;;;;;;;;;;;;30.96;70.53;100662.78;4985580;27;70321;-35
2021/10/17 10:49:37;;;;;;;;;;;;;;;30.95;70.75;100661.13;5002720;27;65688;-36
2021/10/17 10:52:31;;;;;;;;;;;;;;;30.91;71.36;100666.16;4990661;27;69827;-34
2021/10/17 10:55:03;;;;;;;;;;;;;;;30.81;71.38;100671.25;4987879;27;66563;-34
2021/10/17 10:57:39;;;;;;;;;;;;;;;30.65;72.03;100664.56;4984439;27;70232;-34
2021/10/17 11:00:11;;;;;;;;;;;;;;;30.60;72.61;100669.81;4989191;27;66929;-35
2021/10/17 11:03:01;;;;;;;;;;;;;;;30.54;72.44;100669.88;4984680;27;69960;-42
2021/10/17 11:05:31;;;;;;;;;;;;;;;30.47;72.79;100672.63;4993524;27;65492;-35
2021/10/17 11:08:15;;;;;;;;;;;;;;;30.44;73.30;100675.78;4985664;27;69346;-35
2021/10/17 11:10:50;;;;;;;;;;;;;;;30.42;73.15;100677.88;4984841;27;66395;-34
2021/10/17 11:13:40;;;;;;;;;;;;;;;30.38;72.93;100682.09;4989833;27;70075;-35
2021/10/17 11:16:22;;;;;;;;;;;;;;;30.36;73.40;100684.19;4989804;27;66371;-34
2021/10/17 11:19:00;;;;;;;;;;;;;;;30.36;72.79;100686.88;4983846;27;68722;-34
2021/10/17 11:21:33;;;;;;;;;;;;;;;30.35;73.13;100688.78;4995824;27;66467;-35
2021/10/17 11:24:05;;;;;;;;;;;;;;;30.36;72.69;100700.41;4984451;27;69731;-35
2021/10/17 11:26:37;;;;;;;;;;;;;;;30.33;73.20;100701.69;4988264;27;66111;-35
2021/10/17 11:29:08;;;;;;;;;;;;;;;30.33;73.13;100700.88;4989703;27;69288;-34
2021/10/17 11:31:40;;;;;;;;;;;;;;;30.35;73.24;100712.31;5087073;27;65602;-35
2021/10/17 11:34:13;;;;;;;;;;;;;;;30.32;72.94;100712.75;4985849;27;69377;-34
2021/10/17 11:36:44;;;;;;;;;;;;;;;30.32;72.74;100720.88;4988069;27;66867;-35
2021/10/17 11:39:15;;;;;;;;;;;;;;;30.31;72.80;100722.72;4980131;27;69448;-35
2021/10/17 11:41:45;;;;;;;;;;;;;;;30.26;71.28;100720.69;4978458;27;66539;-36
2021/10/17 11:44:20;;;;;;;;;;;;;;;30.24;71.62;100727.38;4985507;27;69912;-35
2021/10/17 11:46:51;;;;;;;;;;;;;;;30.24;71.97;100725.50;4986080;27;65847;-35
2021/10/17 11:49:21;;;;;;;;;;;;;;;30.23;72.42;100729.25;4988200;27;70335;-36
2021/10/17 11:52:03;;;;;;;;;;;;;;;30.26;73.16;100745.03;4990623;27;66801;-35
2021/10/17 11:54:42;;;;;;;;;;;;;;;30.28;72.97;100737.53;4995621;27;71191;-36
2021/10/17 11:57:32;;;;;;;;;;;;;;;30.25;73.18;100740.66;4993774;27;66063;-36
2021/10/17 12:00:05;;;;;;;;;;;;;;;30.21;70.87;100752.13;4986465;27;70116;-36
2021/10/17 12:02:54;;;;;;;;;;;;;;;30.16;70.70;100757.38;4983160;27;65627;-37
2021/10/17 12:05:28;;;;;;;;;;;;;;;30.10;70.27;100756.34;4989417;27;70594;-36
2021/10/17 12:07:59;;;;;;;;;;;;;;;30.15;72.38;100770.06;4988027;27;65893;-35
2021/10/17 12:10:30;;;;;;;;;;;;;;;30.21;72.54;100779.19;4989407;27;70372;-35
2021/10/17 12:13:03;;;;;;;;;;;;;;;30.24;73.38;100778.78;4996011;27;65680;-35
2021/10/17 12:15:33;;;;;;;;;;;;;;;30.19;73.39;100783.97;4986126;27;70144;-36
2021/10/17 12:18:04;;;;;;;;;;;;;;;30.17;73.38;100791.47;4991441;27;66447;-35
2021/10/17 12:20:35;;;;;;;;;;;;;;;30.15;74.36;100790.88;4993532;27;70501;-35
2021/10/17 12:23:05;;;;;;;;;;;;;;;30.12;74.33;100792.16;4992184;27;66264;-35
2021/10/17 12:25:55;;;;;;;;;;;;;;;30.11;74.49;100804.00;4979573;27;69745;-35
2021/10/17 12:28:25;;;;;;;;;;;;;;;30.00;75.06;100793.88;4989273;27;66679;-37
2021/10/17 12:31:00;;;;;;;;;;;;;;;30.15;74.51;100817.94;4991104;27;70506;-35
2021/10/17 12:33:33;;;;;;;;;;;;;;;30.19;74.62;100819.97;4983966;27;66451;-35
2021/10/17 12:36:04;;;;;;;;;;;;;;;30.20;74.40;100821.66;5000505;27;69334;-36
2021/10/17 12:38:36;;;;;;;;;;;;;;;30.21;74.26;100826.00;4987273;27;66982;-35
2021/10/17 12:41:11;;;;;;;;;;;;;;;30.22;73.89;100826.84;5004431;27;70006;-35
2021/10/17 12:43:46;;;;;;;;;;;;;;;30.21;73.71;100834.13;4994333;27;65509;-35
2021/10/17 12:46:20;;;;;;;;;;;;;;;30.17;73.73;100827.50;4985314;27;70251;-35
2021/10/17 12:48:51;;;;;;;;;;;;;;;30.17;73.81;100838.31;4998535;27;66445;-35
2021/10/17 12:51:27;;;;;;;;;;;;;;;30.18;74.02;100839.97;4994837;27;70210;-36
2021/10/17 12:54:08;;;;;;;;;;;;;;;30.16;73.99;100842.06;4994113;27;65592;-36
2021/10/17 12:56:42;;;;;;;;;;;;;;;30.17;74.04;100854.56;4989089;27;69895;-36
2021/10/17 12:59:14;;;;;;;;;;;;;;;30.20;75.39;100854.13;4995399;27;66254;-35
2021/10/17 13:02:05;;;;;;;;;;;;;;;30.14;73.21;100854.13;4988986;27;70156;-36
2021/10/17 13:04:37;;;;;;;;;;;;;;;30.01;72.00;100853.16;4999429;27;66224;-36
2021/10/17 13:07:13;;;;;;;;;;;;;;;29.84;70.95;100860.94;4994261;27;69757;-35
2021/10/17 13:09:54;;;;;;;;;;;;;;;29.71;70.75;100865.56;4994545;27;65532;-36